sensor_id;sensor_type;location;lat;lon;timestamp;P1;durP1;ratioP1;P2;durP2;ratioP2
25868;SDS011;13688;53.154;18.136;2022-09-09T00:08:39;9.30;;;5.27;;
25868;SDS011;13688;53.154;18.136;2022-09-09T00:14:03;8.80;;;5.27;;
25868;SDS011;13688;53.154;18.136;2022-09-09T00:19:36;11.80;;;4.87;;
25868;SDS011;13688;53.154;18.136;2022-09-09T00:25:10;8.03;;;5.00;;
25868;SDS011;13688;53.154;18.136;2022-09-09T00:30:42;8.77;;;5.00;;
25868;SDS011;13688;53.154;18.136;2022-09-09T00:36:07;10.55;;;5.37;;
25868;SDS011;13688;53.154;18.136;2022-09-09T00:53:12;12.87;;;5.17;;
25868;SDS011;13688;53.154;18.136;2022-09-09T00:58:58;11.00;;;5.20;;
25868;SDS011;13688;53.154;18.136;2022-09-09T01:04:25;6.73;;;4.50;;
25868;SDS011;13688;53.154;18.136;2022-09-09T01:09:57;11.77;;;5.50;;
25868;SDS011;13688;53.154;18.136;2022-09-09T01:15:27;10.00;;;5.17;;
25868;SDS011;13688;53.154;18.136;2022-09-09T01:21:09;10.77;;;5.17;;
25868;SDS011;13688;53.154;18.136;2022-09-09T01:26:45;11.83;;;5.57;;
25868;SDS011;13688;53.154;18.136;2022-09-09T01:37:54;7.90;;;5.30;;
25868;SDS011;13688;53.154;18.136;2022-09-09T01:43:16;7.93;;;5.27;;
25868;SDS011;13688;53.154;18.136;2022-09-09T01:48:39;8.73;;;4.97;;
25868;SDS011;13688;53.154;18.136;2022-09-09T01:54:03;8.00;;;4.80;;
25868;SDS011;13688;53.154;18.136;2022-09-09T01:59:41;9.88;;;5.15;;
25868;SDS011;13688;53.154;18.136;2022-09-09T02:05:27;8.53;;;4.90;;
25868;SDS011;13688;53.154;18.136;2022-09-09T02:10:51;10.97;;;5.87;;
25868;SDS011;13688;53.154;18.136;2022-09-09T02:22:02;8.47;;;5.20;;
25868;SDS011;13688;53.154;18.136;2022-09-09T02:27:26;10.60;;;5.40;;
25868;SDS011;13688;53.154;18.136;2022-09-09T02:32:50;9.63;;;5.27;;
25868;SDS011;13688;53.154;18.136;2022-09-09T02:38:16;6.87;;;4.60;;
25868;SDS011;13688;53.154;18.136;2022-09-09T02:43:43;6.97;;;4.80;;
25868;SDS011;13688;53.154;18.136;2022-09-09T02:49:09;9.48;;;5.22;;
25868;SDS011;13688;53.154;18.136;2022-09-09T02:54:41;9.93;;;5.40;;
25868;SDS011;13688;53.154;18.136;2022-09-09T03:00:07;7.17;;;4.80;;
25868;SDS011;13688;53.154;18.136;2022-09-09T03:05:35;7.55;;;5.28;;
25868;SDS011;13688;53.154;18.136;2022-09-09T03:10:59;8.27;;;5.30;;
25868;SDS011;13688;53.154;18.136;2022-09-09T03:16:22;9.77;;;5.33;;
25868;SDS011;13688;53.154;18.136;2022-09-09T03:21:46;8.17;;;5.27;;
25868;SDS011;13688;53.154;18.136;2022-09-09T03:27:08;7.83;;;5.67;;
25868;SDS011;13688;53.154;18.136;2022-09-09T03:32:31;7.20;;;5.30;;
25868;SDS011;13688;53.154;18.136;2022-09-09T03:37:54;9.70;;;5.80;;
25868;SDS011;13688;53.154;18.136;2022-09-09T03:43:16;8.50;;;6.60;;
25868;SDS011;13688;53.154;18.136;2022-09-09T03:48:41;10.48;;;6.42;;
25868;SDS011;13688;53.154;18.136;2022-09-09T03:54:05;7.60;;;5.50;;
25868;SDS011;13688;53.154;18.136;2022-09-09T03:59:27;11.08;;;6.33;;
25868;SDS011;13688;53.154;18.136;2022-09-09T04:04:49;12.03;;;6.30;;
25868;SDS011;13688;53.154;18.136;2022-09-09T04:10:11;12.90;;;6.60;;
25868;SDS011;13688;53.154;18.136;2022-09-09T04:15:34;12.33;;;6.53;;
25868;SDS011;13688;53.154;18.136;2022-09-09T04:21:02;10.10;;;6.30;;
25868;SDS011;13688;53.154;18.136;2022-09-09T04:26:26;10.27;;;6.37;;
25868;SDS011;13688;53.154;18.136;2022-09-09T04:31:50;11.90;;;6.30;;
25868;SDS011;13688;53.154;18.136;2022-09-09T04:37:12;11.70;;;6.97;;
25868;SDS011;13688;53.154;18.136;2022-09-09T04:42:35;12.93;;;7.17;;
25868;SDS011;13688;53.154;18.136;2022-09-09T04:47:57;11.20;;;7.35;;
25868;SDS011;13688;53.154;18.136;2022-09-09T04:53:19;9.88;;;7.33;;
25868;SDS011;13688;53.154;18.136;2022-09-09T04:58:43;14.35;;;7.42;;
25868;SDS011;13688;53.154;18.136;2022-09-09T05:04:06;11.63;;;7.47;;
25868;SDS011;13688;53.154;18.136;2022-09-09T05:09:28;11.43;;;7.92;;
25868;SDS011;13688;53.154;18.136;2022-09-09T05:14:53;12.53;;;8.20;;
25868;SDS011;13688;53.154;18.136;2022-09-09T05:20:15;16.40;;;8.78;;
25868;SDS011;13688;53.154;18.136;2022-09-09T05:25:37;13.62;;;8.38;;
25868;SDS011;13688;53.154;18.136;2022-09-09T05:31:07;13.80;;;8.70;;
25868;SDS011;13688;53.154;18.136;2022-09-09T05:36:31;13.68;;;8.95;;
25868;SDS011;13688;53.154;18.136;2022-09-09T05:41:55;14.50;;;9.20;;
25868;SDS011;13688;53.154;18.136;2022-09-09T05:47:18;18.00;;;9.85;;
25868;SDS011;13688;53.154;18.136;2022-09-09T05:52:40;14.15;;;9.78;;
25868;SDS011;13688;53.154;18.136;2022-09-09T05:58:05;15.95;;;10.18;;
25868;SDS011;13688;53.154;18.136;2022-09-09T06:03:27;17.45;;;10.38;;
25868;SDS011;13688;53.154;18.136;2022-09-09T06:08:52;20.40;;;10.48;;
25868;SDS011;13688;53.154;18.136;2022-09-09T06:14:15;15.68;;;9.85;;
25868;SDS011;13688;53.154;18.136;2022-09-09T06:19:37;20.12;;;11.45;;
25868;SDS011;13688;53.154;18.136;2022-09-09T06:25:01;20.10;;;11.53;;
25868;SDS011;13688;53.154;18.136;2022-09-09T06:30:25;23.07;;;11.78;;
25868;SDS011;13688;53.154;18.136;2022-09-09T06:35:51;23.20;;;12.53;;
25868;SDS011;13688;53.154;18.136;2022-09-09T06:41:16;21.60;;;12.30;;
25868;SDS011;13688;53.154;18.136;2022-09-09T06:46:42;22.17;;;11.78;;
25868;SDS011;13688;53.154;18.136;2022-09-09T06:52:04;27.30;;;14.07;;
25868;SDS011;13688;53.154;18.136;2022-09-09T06:57:28;27.22;;;12.73;;
25868;SDS011;13688;53.154;18.136;2022-09-09T07:02:52;27.42;;;13.80;;
25868;SDS011;13688;53.154;18.136;2022-09-09T07:08:15;27.17;;;13.90;;
25868;SDS011;13688;53.154;18.136;2022-09-09T07:13:38;27.07;;;13.93;;
25868;SDS011;13688;53.154;18.136;2022-09-09T07:19:01;29.80;;;15.23;;
25868;SDS011;13688;53.154;18.136;2022-09-09T07:24:23;30.27;;;15.58;;
25868;SDS011;13688;53.154;18.136;2022-09-09T07:29:47;30.88;;;14.78;;
25868;SDS011;13688;53.154;18.136;2022-09-09T07:35:10;32.67;;;14.73;;
25868;SDS011;13688;53.154;18.136;2022-09-09T07:40:33;30.17;;;15.53;;
25868;SDS011;13688;53.154;18.136;2022-09-09T07:45:58;28.95;;;15.10;;
25868;SDS011;13688;53.154;18.136;2022-09-09T07:51:24;42.13;;;22.43;;
25868;SDS011;13688;53.154;18.136;2022-09-09T07:56:50;31.43;;;16.20;;
25868;SDS011;13688;53.154;18.136;2022-09-09T08:02:13;33.15;;;15.32;;
25868;SDS011;13688;53.154;18.136;2022-09-09T08:07:35;28.25;;;16.27;;
25868;SDS011;13688;53.154;18.136;2022-09-09T08:12:57;30.62;;;15.85;;
25868;SDS011;13688;53.154;18.136;2022-09-09T08:18:22;25.40;;;15.23;;
25868;SDS011;13688;53.154;18.136;2022-09-09T08:23:45;32.48;;;16.80;;
25868;SDS011;13688;53.154;18.136;2022-09-09T08:29:10;32.55;;;16.37;;
25868;SDS011;13688;53.154;18.136;2022-09-09T08:34:33;30.85;;;16.50;;
25868;SDS011;13688;53.154;18.136;2022-09-09T08:39:57;36.35;;;19.50;;
25868;SDS011;13688;53.154;18.136;2022-09-09T08:45:31;32.85;;;16.97;;
25868;SDS011;13688;53.154;18.136;2022-09-09T08:56:12;35.03;;;18.95;;
25868;SDS011;13688;53.154;18.136;2022-09-09T09:01:50;34.98;;;19.42;;
25868;SDS011;13688;53.154;18.136;2022-09-09T09:13:30;41.50;;;26.20;;
25868;SDS011;13688;53.154;18.136;2022-09-09T09:18:53;37.95;;;20.52;;
25868;SDS011;13688;53.154;18.136;2022-09-09T09:24:27;36.23;;;20.60;;
25868;SDS011;13688;53.154;18.136;2022-09-09T09:30:02;35.50;;;19.67;;
25868;SDS011;13688;53.154;18.136;2022-09-09T09:35:48;42.07;;;22.93;;
25868;SDS011;13688;53.154;18.136;2022-09-09T09:41:13;50.15;;;28.12;;
25868;SDS011;13688;53.154;18.136;2022-09-09T09:46:42;39.13;;;21.50;;
25868;SDS011;13688;53.154;18.136;2022-09-09T09:52:06;46.07;;;22.90;;
25868;SDS011;13688;53.154;18.136;2022-09-09T09:57:33;52.07;;;24.13;;
25868;SDS011;13688;53.154;18.136;2022-09-09T10:03:01;42.43;;;23.70;;
25868;SDS011;13688;53.154;18.136;2022-09-09T10:08:25;43.23;;;23.07;;
25868;SDS011;13688;53.154;18.136;2022-09-09T10:19:39;49.48;;;29.82;;
25868;SDS011;13688;53.154;18.136;2022-09-09T10:31:20;39.27;;;25.97;;
25868;SDS011;13688;53.154;18.136;2022-09-09T10:36:52;55.27;;;32.97;;
25868;SDS011;13688;53.154;18.136;2022-09-09T10:42:17;42.23;;;26.00;;
25868;SDS011;13688;53.154;18.136;2022-09-09T10:48:00;33.70;;;20.82;;
25868;SDS011;13688;53.154;18.136;2022-09-09T11:04:40;40.17;;;24.17;;
25868;SDS011;13688;53.154;18.136;2022-09-09T11:10:38;39.13;;;24.03;;
25868;SDS011;13688;53.154;18.136;2022-09-09T11:16:05;42.73;;;27.40;;
25868;SDS011;13688;53.154;18.136;2022-09-09T11:21:41;43.87;;;24.65;;
25868;SDS011;13688;53.154;18.136;2022-09-09T11:27:15;40.73;;;23.52;;
25868;SDS011;13688;53.154;18.136;2022-09-09T11:33:02;40.28;;;24.32;;
25868;SDS011;13688;53.154;18.136;2022-09-09T11:39:07;44.57;;;27.23;;
25868;SDS011;13688;53.154;18.136;2022-09-09T11:44:50;44.53;;;26.07;;
25868;SDS011;13688;53.154;18.136;2022-09-09T11:50:29;40.23;;;24.60;;
25868;SDS011;13688;53.154;18.136;2022-09-09T11:56:11;36.07;;;23.13;;
25868;SDS011;13688;53.154;18.136;2022-09-09T12:01:43;35.73;;;22.20;;
25868;SDS011;13688;53.154;18.136;2022-09-09T12:07:27;38.03;;;20.53;;
25868;SDS011;13688;53.154;18.136;2022-09-09T12:12:51;33.23;;;19.50;;
25868;SDS011;13688;53.154;18.136;2022-09-09T12:18:36;33.80;;;19.10;;
25868;SDS011;13688;53.154;18.136;2022-09-09T12:24:04;27.03;;;17.47;;
25868;SDS011;13688;53.154;18.136;2022-09-09T12:29:42;31.27;;;17.47;;
25868;SDS011;13688;53.154;18.136;2022-09-09T12:35:03;23.83;;;17.27;;
25868;SDS011;13688;53.154;18.136;2022-09-09T12:40:32;43.57;;;20.47;;
25868;SDS011;13688;53.154;18.136;2022-09-09T12:45:58;34.93;;;18.13;;
25868;SDS011;13688;53.154;18.136;2022-09-09T12:51:31;31.35;;;19.45;;
25868;SDS011;13688;53.154;18.136;2022-09-09T12:56:54;24.15;;;14.70;;
25868;SDS011;13688;53.154;18.136;2022-09-09T13:02:21;24.98;;;16.07;;
25868;SDS011;13688;53.154;18.136;2022-09-09T13:07:44;22.35;;;14.00;;
25868;SDS011;13688;53.154;18.136;2022-09-09T13:13:17;23.45;;;15.70;;
25868;SDS011;13688;53.154;18.136;2022-09-09T13:18:43;20.07;;;13.40;;
25868;SDS011;13688;53.154;18.136;2022-09-09T13:24:06;19.95;;;13.25;;
25868;SDS011;13688;53.154;18.136;2022-09-09T13:29:51;22.93;;;13.40;;
25868;SDS011;13688;53.154;18.136;2022-09-09T13:35:33;20.33;;;14.20;;
25868;SDS011;13688;53.154;18.136;2022-09-09T13:41:24;19.80;;;12.73;;
25868;SDS011;13688;53.154;18.136;2022-09-09T13:47:03;19.53;;;12.40;;
25868;SDS011;13688;53.154;18.136;2022-09-09T13:52:28;16.65;;;11.63;;
25868;SDS011;13688;53.154;18.136;2022-09-09T13:57:53;17.52;;;11.53;;
25868;SDS011;13688;53.154;18.136;2022-09-09T14:03:20;17.62;;;12.63;;
25868;SDS011;13688;53.154;18.136;2022-09-09T14:08:43;18.25;;;11.60;;
25868;SDS011;13688;53.154;18.136;2022-09-09T14:14:06;17.80;;;12.00;;
25868;SDS011;13688;53.154;18.136;2022-09-09T14:19:29;15.93;;;11.18;;
25868;SDS011;13688;53.154;18.136;2022-09-09T14:24:51;17.75;;;12.30;;
25868;SDS011;13688;53.154;18.136;2022-09-09T14:30:16;17.30;;;11.30;;
25868;SDS011;13688;53.154;18.136;2022-09-09T14:35:38;17.37;;;10.70;;
25868;SDS011;13688;53.154;18.136;2022-09-09T14:41:02;15.78;;;9.63;;
25868;SDS011;13688;53.154;18.136;2022-09-09T14:46:27;15.32;;;11.00;;
25868;SDS011;13688;53.154;18.136;2022-09-09T14:51:50;18.70;;;10.85;;
25868;SDS011;13688;53.154;18.136;2022-09-09T14:57:13;14.87;;;9.93;;
25868;SDS011;13688;53.154;18.136;2022-09-09T15:02:35;14.58;;;10.45;;
25868;SDS011;13688;53.154;18.136;2022-09-09T15:08:00;14.38;;;11.00;;
25868;SDS011;13688;53.154;18.136;2022-09-09T15:13:22;15.53;;;10.80;;
25868;SDS011;13688;53.154;18.136;2022-09-09T15:18:45;16.10;;;11.33;;
25868;SDS011;13688;53.154;18.136;2022-09-09T15:24:10;17.30;;;11.40;;
25868;SDS011;13688;53.154;18.136;2022-09-09T15:29:32;16.48;;;10.95;;
25868;SDS011;13688;53.154;18.136;2022-09-09T15:34:55;21.15;;;11.97;;
25868;SDS011;13688;53.154;18.136;2022-09-09T15:40:17;16.30;;;11.95;;
25868;SDS011;13688;53.154;18.136;2022-09-09T15:45:40;17.27;;;13.80;;
25868;SDS011;13688;53.154;18.136;2022-09-09T15:51:05;15.83;;;12.28;;
25868;SDS011;13688;53.154;18.136;2022-09-09T15:56:30;19.37;;;13.32;;
25868;SDS011;13688;53.154;18.136;2022-09-09T16:01:54;21.27;;;14.03;;
25868;SDS011;13688;53.154;18.136;2022-09-09T16:07:17;20.77;;;15.18;;
25868;SDS011;13688;53.154;18.136;2022-09-09T16:12:40;21.02;;;15.15;;
25868;SDS011;13688;53.154;18.136;2022-09-09T16:18:02;23.62;;;16.97;;
25868;SDS011;13688;53.154;18.136;2022-09-09T16:23:24;23.30;;;17.03;;
25868;SDS011;13688;53.154;18.136;2022-09-09T16:28:49;23.00;;;17.37;;
25868;SDS011;13688;53.154;18.136;2022-09-09T16:34:12;24.10;;;16.23;;
25868;SDS011;13688;53.154;18.136;2022-09-09T16:39:37;22.77;;;16.48;;
25868;SDS011;13688;53.154;18.136;2022-09-09T16:44:59;27.90;;;17.10;;
25868;SDS011;13688;53.154;18.136;2022-09-09T16:50:23;21.10;;;16.07;;
25868;SDS011;13688;53.154;18.136;2022-09-09T16:55:48;26.42;;;17.52;;
25868;SDS011;13688;53.154;18.136;2022-09-09T17:01:16;25.30;;;17.20;;
25868;SDS011;13688;53.154;18.136;2022-09-09T17:06:41;33.05;;;22.58;;
25868;SDS011;13688;53.154;18.136;2022-09-09T17:12:05;27.27;;;18.65;;
25868;SDS011;13688;53.154;18.136;2022-09-09T17:17:28;25.73;;;18.60;;
25868;SDS011;13688;53.154;18.136;2022-09-09T17:22:52;26.68;;;17.73;;
25868;SDS011;13688;53.154;18.136;2022-09-09T17:28:18;23.25;;;17.12;;
25868;SDS011;13688;53.154;18.136;2022-09-09T17:33:43;26.23;;;18.67;;
25868;SDS011;13688;53.154;18.136;2022-09-09T17:39:07;29.52;;;20.68;;
25868;SDS011;13688;53.154;18.136;2022-09-09T17:44:30;35.45;;;23.45;;
25868;SDS011;13688;53.154;18.136;2022-09-09T17:49:52;29.45;;;21.17;;
25868;SDS011;13688;53.154;18.136;2022-09-09T17:55:16;28.47;;;19.57;;
25868;SDS011;13688;53.154;18.136;2022-09-09T18:00:38;25.72;;;19.00;;
25868;SDS011;13688;53.154;18.136;2022-09-09T18:06:02;21.30;;;16.17;;
25868;SDS011;13688;53.154;18.136;2022-09-09T18:11:30;21.87;;;15.97;;
25868;SDS011;13688;53.154;18.136;2022-09-09T18:16:58;27.00;;;17.20;;
25868;SDS011;13688;53.154;18.136;2022-09-09T18:22:20;27.50;;;18.60;;
25868;SDS011;13688;53.154;18.136;2022-09-09T18:27:43;24.55;;;18.07;;
25868;SDS011;13688;53.154;18.136;2022-09-09T18:33:05;30.23;;;19.70;;
25868;SDS011;13688;53.154;18.136;2022-09-09T18:38:27;25.70;;;17.98;;
25868;SDS011;13688;53.154;18.136;2022-09-09T18:43:51;30.70;;;22.22;;
25868;SDS011;13688;53.154;18.136;2022-09-09T18:49:19;28.90;;;18.80;;
25868;SDS011;13688;53.154;18.136;2022-09-09T18:54:43;28.45;;;17.73;;
25868;SDS011;13688;53.154;18.136;2022-09-09T19:00:06;28.65;;;17.95;;
25868;SDS011;13688;53.154;18.136;2022-09-09T19:05:29;25.05;;;17.10;;
25868;SDS011;13688;53.154;18.136;2022-09-09T19:10:54;27.85;;;20.35;;
25868;SDS011;13688;53.154;18.136;2022-09-09T19:16:19;31.30;;;20.70;;
25868;SDS011;13688;53.154;18.136;2022-09-09T19:21:48;31.97;;;21.20;;
25868;SDS011;13688;53.154;18.136;2022-09-09T19:27:12;30.02;;;21.40;;
25868;SDS011;13688;53.154;18.136;2022-09-09T19:32:34;28.90;;;19.50;;
25868;SDS011;13688;53.154;18.136;2022-09-09T19:37:57;30.45;;;20.15;;
25868;SDS011;13688;53.154;18.136;2022-09-09T19:43:21;28.00;;;19.40;;
25868;SDS011;13688;53.154;18.136;2022-09-09T19:48:45;30.25;;;20.45;;
25868;SDS011;13688;53.154;18.136;2022-09-09T19:54:09;27.80;;;19.80;;
25868;SDS011;13688;53.154;18.136;2022-09-09T19:59:32;29.45;;;20.75;;
25868;SDS011;13688;53.154;18.136;2022-09-09T20:04:54;31.33;;;22.40;;
25868;SDS011;13688;53.154;18.136;2022-09-09T20:10:16;32.33;;;22.13;;
25868;SDS011;13688;53.154;18.136;2022-09-09T20:15:38;34.50;;;22.82;;
25868;SDS011;13688;53.154;18.136;2022-09-09T20:21:08;33.33;;;23.32;;
25868;SDS011;13688;53.154;18.136;2022-09-09T20:26:38;33.20;;;24.18;;
25868;SDS011;13688;53.154;18.136;2022-09-09T20:32:01;39.00;;;25.05;;
25868;SDS011;13688;53.154;18.136;2022-09-09T20:37:23;40.63;;;26.50;;
25868;SDS011;13688;53.154;18.136;2022-09-09T20:42:49;39.45;;;27.10;;
25868;SDS011;13688;53.154;18.136;2022-09-09T20:48:13;44.13;;;28.52;;
25868;SDS011;13688;53.154;18.136;2022-09-09T20:53:36;41.93;;;27.50;;
25868;SDS011;13688;53.154;18.136;2022-09-09T20:59:06;45.73;;;28.52;;
25868;SDS011;13688;53.154;18.136;2022-09-09T21:04:46;45.87;;;29.83;;
25868;SDS011;13688;53.154;18.136;2022-09-09T21:10:09;40.83;;;28.53;;
25868;SDS011;13688;53.154;18.136;2022-09-09T21:15:32;44.93;;;29.70;;
25868;SDS011;13688;53.154;18.136;2022-09-09T21:20:54;45.37;;;28.90;;
25868;SDS011;13688;53.154;18.136;2022-09-09T21:26:18;40.50;;;29.50;;
25868;SDS011;13688;53.154;18.136;2022-09-09T21:31:42;44.13;;;29.37;;
25868;SDS011;13688;53.154;18.136;2022-09-09T21:37:06;52.07;;;31.17;;
25868;SDS011;13688;53.154;18.136;2022-09-09T21:42:29;46.17;;;30.77;;
25868;SDS011;13688;53.154;18.136;2022-09-09T21:47:51;49.70;;;31.20;;
25868;SDS011;13688;53.154;18.136;2022-09-09T21:53:15;44.83;;;31.20;;
25868;SDS011;13688;53.154;18.136;2022-09-09T21:58:37;51.67;;;33.10;;
25868;SDS011;13688;53.154;18.136;2022-09-09T22:04:07;46.53;;;32.13;;
25868;SDS011;13688;53.154;18.136;2022-09-09T22:09:29;52.77;;;32.10;;
25868;SDS011;13688;53.154;18.136;2022-09-09T22:14:52;48.53;;;31.07;;
25868;SDS011;13688;53.154;18.136;2022-09-09T22:20:15;47.20;;;30.87;;
25868;SDS011;13688;53.154;18.136;2022-09-09T22:25:42;50.57;;;31.40;;
25868;SDS011;13688;53.154;18.136;2022-09-09T22:31:06;49.53;;;31.43;;
25868;SDS011;13688;53.154;18.136;2022-09-09T22:36:29;47.97;;;31.67;;
25868;SDS011;13688;53.154;18.136;2022-09-09T22:41:53;50.70;;;31.97;;
25868;SDS011;13688;53.154;18.136;2022-09-09T22:47:17;53.40;;;31.30;;
25868;SDS011;13688;53.154;18.136;2022-09-09T22:52:39;53.60;;;32.33;;
25868;SDS011;13688;53.154;18.136;2022-09-09T22:58:02;49.97;;;31.40;;
25868;SDS011;13688;53.154;18.136;2022-09-09T23:03:25;50.83;;;31.33;;
25868;SDS011;13688;53.154;18.136;2022-09-09T23:08:49;49.30;;;32.37;;
25868;SDS011;13688;53.154;18.136;2022-09-09T23:14:16;50.67;;;31.73;;
25868;SDS011;13688;53.154;18.136;2022-09-09T23:19:39;55.50;;;33.87;;
25868;SDS011;13688;53.154;18.136;2022-09-09T23:25:02;55.57;;;33.20;;
25868;SDS011;13688;53.154;18.136;2022-09-09T23:30:25;56.90;;;33.40;;
25868;SDS011;13688;53.154;18.136;2022-09-09T23:35:57;57.13;;;33.27;;
25868;SDS011;13688;53.154;18.136;2022-09-09T23:41:17;62.70;;;35.63;;
25868;SDS011;13688;53.154;18.136;2022-09-09T23:46:42;61.93;;;35.57;;
25868;SDS011;13688;53.154;18.136;2022-09-09T23:52:05;66.73;;;36.83;;
25868;SDS011;13688;53.154;18.136;2022-09-09T23:57:28;57.13;;;35.57;;
